Airfield :
LOGIN :

Register | Disclaimer

   EN    FR    IT 

 










Legend :    VFR   Marginal VFR   IFR   Intensive IFR   Very Intensive IFR
Visi :
Ceiling :
>= 8 km
>= 3000ft
5 to 8 km
1000 to 3000 ft
1500m to 5 km
500 to 1000 ft
800 to 1500m
200 to 500 ft
< 800m
< 200 ft
Symbols :   Thunderstorms  Fog  Heavy snow  Heavy precipitations  Wind > 20 kt
SIGMETs :     Misc.  Thunderstorms  Icing  Turbulence  Mountain Waves  Volcanic Ashes







- Airport Elevation : 209 ft
- IATA code : CLY
- Download approach charts


LFKC - Calvi

CURRENT METAR :
  • 180730Z AUTO 22016G27KT 170V260 9999 FEW048 11/01 Q1019 NOSIG

EXPIRED METARs :
  • 180700Z AUTO 21017G27KT 180V240 9999 FEW049 10/01 Q1018 NOSIG
  • 180630Z AUTO 21013KT 180V240 9999 FEW043 SCT049 10/01 Q1019 BECMG 20020G35KT
  • 180600Z AUTO 20015KT 180V240 9999 SCT049 10/00 Q1019 BECMG 20020G35KT
  • 180530Z AUTO 20014KT CAVOK 10/M00 Q1019 BECMG 20020G35KT
  • 180500Z AUTO 20015KT 9999 FEW054 10/M00 Q1019 NOSIG

TAF TAF LFKC
Valid from the 18 at 03:00 until the 19 at 03:00 UTC


180200Z 1803/1903 20012KT 9999 SCT050
BECMG 1807/1810 20020G35KT TX14/1812Z TN09/1803Z
ATIS : +33 4 95 65 82 49
No reported NOTAMs for that airfield.
4 SIGMETs reported for the Marseille FIR (LFMM) :
 
Severe mountain waves
LFMM SIGMET 6 VALID 180700/181100 LFPW
LFMM MARSEILLE FIR/UIR SEV MTW FCST WI N4530 E00700 - N4400 E00700 - N4400 E00730 - N4315 E00645 - N4500 E00615 - N4530 E00700 SFC/FL300 STNR INTSF=
Severe turbulence
LFMM SIGMET 5 VALID 180600/180900 LFPW
LFMM MARSEILLE FIR/UIR SEV TURB FCST WI N4345 E00245 - N4630 E00300 - N4630 E00400 - N4400 E00415 - N4345 E00245 SFC/FL080 STNR NC=
Severe turbulence
LFMM SIGMET 4 VALID 180600/180900 LFPW
LFMM MARSEILLE FIR/UIR SEV TURB FCST WI N4330 E00900 - N4315 E00945 - N4115 E00945 - N4115 E00845 - N4300 E00530 - N4400 E00615 - N4300 E00800 - N4330 E00900 SFC/FL060 STNR NC=
Severe mountain waves
LFMM SIGMET 3 VALID 180600/180900 LFPW
LFMM MARSEILLE FIR/UIR SEV MTW FCST S OF N4230 AND E OF E00900 SFC/FL220 MOV N 10KT NC=



MET'MAP, your aeronautical weather chart ! - Copyright ORBIFLY December 2007 - Disclaimer

ORBIFLY MET'MAP TEAM :

Programming & Development : Alexandra Zaïnal
Concept & Development : Baudouin d'Aumeries
Co-Development & Prog : Marc-Olivier Méhu
Technical & hardware support : Manuel Goepfert

Contact : metmap@orbifly.com




SOURCES & CREDITS :

   NOAA